sensor_id;sensor_type;location;lat;lon;timestamp;pressure;altitude;pressure_sealevel;temperature;humidity
12868;BME280;33517;49.866;8.320;2024-02-26T00:02:04;98609.16;;;8.32;69.88
12868;BME280;33517;49.866;8.320;2024-02-26T00:04:56;98613.78;;;8.36;70.31
12868;BME280;33517;49.866;8.320;2024-02-26T00:07:48;98607.16;;;8.41;69.42
12868;BME280;33517;49.866;8.320;2024-02-26T00:10:40;98609.81;;;8.47;70.20
12868;BME280;33517;49.866;8.320;2024-02-26T00:13:35;98591.84;;;8.44;70.19
12868;BME280;33517;49.866;8.320;2024-02-26T00:16:27;98587.00;;;8.41;70.18
12868;BME280;33517;49.866;8.320;2024-02-26T00:19:19;98571.06;;;8.36;69.58
12868;BME280;33517;49.866;8.320;2024-02-26T00:22:11;98571.25;;;8.34;70.01
12868;BME280;33517;49.866;8.320;2024-02-26T00:25:04;98584.88;;;8.23;70.32
12868;BME280;33517;49.866;8.320;2024-02-26T00:27:56;98588.47;;;8.16;70.70
12868;BME280;33517;49.866;8.320;2024-02-26T00:30:49;98583.63;;;8.13;71.09
12868;BME280;33517;49.866;8.320;2024-02-26T00:33:41;98583.66;;;8.19;71.45
12868;BME280;33517;49.866;8.320;2024-02-26T00:36:33;98588.50;;;8.22;70.92
12868;BME280;33517;49.866;8.320;2024-02-26T00:39:25;98588.50;;;8.22;71.49
12868;BME280;33517;49.866;8.320;2024-02-26T00:42:17;98580.69;;;8.29;71.00
12868;BME280;33517;49.866;8.320;2024-02-26T00:45:09;98578.69;;;8.31;71.13
12868;BME280;33517;49.866;8.320;2024-02-26T00:48:03;98580.53;;;8.30;70.16
12868;BME280;33517;49.866;8.320;2024-02-26T00:50:55;98576.69;;;8.26;71.55
12868;BME280;33517;49.866;8.320;2024-02-26T00:53:47;98583.06;;;8.24;70.84
12868;BME280;33517;49.866;8.320;2024-02-26T00:56:39;98570.84;;;8.31;71.29
12868;BME280;33517;49.866;8.320;2024-02-26T00:59:31;98556.13;;;8.30;71.60
12868;BME280;33517;49.866;8.320;2024-02-26T01:02:23;98566.94;;;8.20;71.82
12868;BME280;33517;49.866;8.320;2024-02-26T01:05:16;98569.56;;;8.20;71.25
12868;BME280;33517;49.866;8.320;2024-02-26T01:08:08;98575.78;;;8.13;71.70
12868;BME280;33517;49.866;8.320;2024-02-26T01:11:00;98584.06;;;8.16;71.57
12868;BME280;33517;49.866;8.320;2024-02-26T01:13:52;98571.75;;;8.17;72.57
12868;BME280;33517;49.866;8.320;2024-02-26T01:16:47;98584.88;;;8.17;72.64
12868;BME280;33517;49.866;8.320;2024-02-26T01:19:39;98593.69;;;8.09;72.18
12868;BME280;33517;49.866;8.320;2024-02-26T01:22:33;98596.69;;;8.06;72.87
12868;BME280;33517;49.866;8.320;2024-02-26T01:25:24;98594.13;;;8.13;72.45
12868;BME280;33517;49.866;8.320;2024-02-26T01:28:16;98599.56;;;8.11;72.41
12868;BME280;33517;49.866;8.320;2024-02-26T01:31:09;98592.06;;;8.08;72.81
12868;BME280;33517;49.866;8.320;2024-02-26T01:34:01;98585.22;;;8.14;72.39
12868;BME280;33517;49.866;8.320;2024-02-26T01:36:52;98588.47;;;8.16;72.85
12868;BME280;33517;49.866;8.320;2024-02-26T01:39:48;98579.22;;;8.20;71.70
12868;BME280;33517;49.866;8.320;2024-02-26T01:42:40;98583.84;;;8.18;71.82
12868;BME280;33517;49.866;8.320;2024-02-26T01:45:32;98606.00;;;8.15;72.59
12868;BME280;33517;49.866;8.320;2024-02-26T01:48:24;98610.81;;;8.12;72.32
12868;BME280;33517;49.866;8.320;2024-02-26T01:51:17;98609.81;;;8.13;71.82
12868;BME280;33517;49.866;8.320;2024-02-26T01:54:09;98611.06;;;8.17;71.86
12868;BME280;33517;49.866;8.320;2024-02-26T01:57:03;98616.47;;;8.15;72.71
12868;BME280;33517;49.866;8.320;2024-02-26T01:59:56;98610.81;;;8.12;72.34
12868;BME280;33517;49.866;8.320;2024-02-26T02:02:49;98611.06;;;8.17;72.52
12868;BME280;33517;49.866;8.320;2024-02-26T02:05:41;98615.16;;;8.26;71.63
12868;BME280;33517;49.866;8.320;2024-02-26T02:08:34;98616.16;;;8.25;71.53
12868;BME280;33517;49.866;8.320;2024-02-26T02:11:26;98617.06;;;8.11;72.93
12868;BME280;33517;49.866;8.320;2024-02-26T02:14:20;98632.63;;;8.19;72.42
12868;BME280;33517;49.866;8.320;2024-02-26T02:17:12;98630.44;;;8.22;72.57
12868;BME280;33517;49.866;8.320;2024-02-26T02:20:08;98641.38;;;8.32;72.47
12868;BME280;33517;49.866;8.320;2024-02-26T02:23:02;98635.38;;;8.38;72.07
12868;BME280;33517;49.866;8.320;2024-02-26T02:25:54;98640.84;;;8.44;71.87
12868;BME280;33517;49.866;8.320;2024-02-26T02:28:48;98644.09;;;8.46;72.04
12868;BME280;33517;49.866;8.320;2024-02-26T02:31:41;98640.47;;;8.47;72.02
12868;BME280;33517;49.866;8.320;2024-02-26T02:34:33;98647.06;;;8.36;72.66
12868;BME280;33517;49.866;8.320;2024-02-26T02:37:25;98654.31;;;8.34;72.14
12868;BME280;33517;49.866;8.320;2024-02-26T02:40:18;98643.63;;;8.35;73.02
12868;BME280;33517;49.866;8.320;2024-02-26T02:43:10;98655.72;;;8.36;72.35
12868;BME280;33517;49.866;8.320;2024-02-26T02:46:02;98650.47;;;8.30;73.49
12868;BME280;33517;49.866;8.320;2024-02-26T02:48:54;98652.25;;;8.29;73.55
12868;BME280;33517;49.866;8.320;2024-02-26T02:51:46;98647.84;;;8.36;72.70
12868;BME280;33517;49.866;8.320;2024-02-26T02:54:38;98641.03;;;8.42;73.29
12868;BME280;33517;49.866;8.320;2024-02-26T02:57:33;98642.50;;;8.51;72.83
12868;BME280;33517;49.866;8.320;2024-02-26T03:00:27;98646.06;;;8.37;73.31
12868;BME280;33517;49.866;8.320;2024-02-26T03:03:18;98651.06;;;8.32;74.69
12868;BME280;33517;49.866;8.320;2024-02-26T03:06:10;98654.53;;;8.39;74.57
12868;BME280;33517;49.866;8.320;2024-02-26T03:09:02;98651.88;;;8.32;74.92
12868;BME280;33517;49.866;8.320;2024-02-26T03:11:54;98664.78;;;8.34;74.98
12868;BME280;33517;49.866;8.320;2024-02-26T03:14:48;98658.75;;;8.33;74.90
12868;BME280;33517;49.866;8.320;2024-02-26T03:17:40;98663.16;;;8.33;75.49
12868;BME280;33517;49.866;8.320;2024-02-26T03:20:32;98661.56;;;8.32;75.27
12868;BME280;33517;49.866;8.320;2024-02-26T03:23:24;98660.75;;;8.31;76.17
12868;BME280;33517;49.866;8.320;2024-02-26T03:26:15;98664.13;;;8.25;76.60
12868;BME280;33517;49.866;8.320;2024-02-26T03:29:07;98656.16;;;8.12;76.82
12868;BME280;33517;49.866;8.320;2024-02-26T03:32:01;98648.09;;;8.07;78.24
12868;BME280;33517;49.866;8.320;2024-02-26T03:34:53;98654.94;;;8.08;77.71
12868;BME280;33517;49.866;8.320;2024-02-26T03:37:46;98649.50;;;8.10;78.02
12868;BME280;33517;49.866;8.320;2024-02-26T03:40:40;98657.31;;;8.03;79.32
12868;BME280;33517;49.866;8.320;2024-02-26T03:43:32;98661.75;;;8.03;79.65
12868;BME280;33517;49.866;8.320;2024-02-26T03:46:24;98656.28;;;7.98;80.69
12868;BME280;33517;49.866;8.320;2024-02-26T03:49:18;98657.31;;;8.03;80.64
12868;BME280;33517;49.866;8.320;2024-02-26T03:52:10;98654.50;;;8.05;79.34
12868;BME280;33517;49.866;8.320;2024-02-26T03:55:02;98647.06;;;8.08;80.48
12868;BME280;33517;49.866;8.320;2024-02-26T03:57:54;98644.25;;;8.10;79.41
12868;BME280;33517;49.866;8.320;2024-02-26T04:00:46;98642.03;;;8.07;80.60
12868;BME280;33517;49.866;8.320;2024-02-26T04:03:38;98642.41;;;8.04;80.90
12868;BME280;33517;49.866;8.320;2024-02-26T04:06:32;98649.66;;;8.02;80.83
12868;BME280;33517;49.866;8.320;2024-02-26T04:09:24;98635.13;;;7.99;81.24
12868;BME280;33517;49.866;8.320;2024-02-26T04:12:16;98634.88;;;7.94;81.80
12868;BME280;33517;49.866;8.320;2024-02-26T04:15:09;98639.91;;;7.89;82.72
12868;BME280;33517;49.866;8.320;2024-02-26T04:18:01;98642.66;;;7.81;83.11
12868;BME280;33517;49.866;8.320;2024-02-26T04:20:53;98643.59;;;7.74;83.58
12868;BME280;33517;49.866;8.320;2024-02-26T04:23:46;98641.75;;;7.68;84.06
12868;BME280;33517;49.866;8.320;2024-02-26T04:26:39;98640.13;;;7.67;85.20
12868;BME280;33517;49.866;8.320;2024-02-26T04:29:31;98644.75;;;7.65;85.27
12868;BME280;33517;49.866;8.320;2024-02-26T04:32:23;98652.50;;;7.52;86.99
12868;BME280;33517;49.866;8.320;2024-02-26T04:35:15;98648.25;;;7.51;87.40
12868;BME280;33517;49.866;8.320;2024-02-26T04:38:07;98649.50;;;7.55;86.08
12868;BME280;33517;49.866;8.320;2024-02-26T04:41:00;98645.31;;;7.60;86.21
12868;BME280;33517;49.866;8.320;2024-02-26T04:43:53;98648.97;;;7.66;86.43
12868;BME280;33517;49.866;8.320;2024-02-26T04:46:44;98646.75;;;7.63;86.97
12868;BME280;33517;49.866;8.320;2024-02-26T04:49:36;98649.38;;;7.63;86.25
12868;BME280;33517;49.866;8.320;2024-02-26T04:52:28;98656.59;;;7.61;87.75
12868;BME280;33517;49.866;8.320;2024-02-26T04:55:20;98653.00;;;7.62;86.65
12868;BME280;33517;49.866;8.320;2024-02-26T04:58:13;98658.03;;;7.63;86.55
12868;BME280;33517;49.866;8.320;2024-02-26T05:01:05;98646.75;;;7.63;87.09
12868;BME280;33517;49.866;8.320;2024-02-26T05:03:57;98641.31;;;7.64;87.91
12868;BME280;33517;49.866;8.320;2024-02-26T05:06:49;98645.72;;;7.64;87.16
12868;BME280;33517;49.866;8.320;2024-02-26T05:09:41;98635.47;;;7.62;86.90
12868;BME280;33517;49.866;8.320;2024-02-26T05:12:34;98644.13;;;7.63;88.13
12868;BME280;33517;49.866;8.320;2024-02-26T05:15:27;98640.69;;;7.62;87.53
12868;BME280;33517;49.866;8.320;2024-02-26T05:18:19;98644.13;;;7.63;88.62
12868;BME280;33517;49.866;8.320;2024-02-26T05:21:11;98647.16;;;7.66;88.13
12868;BME280;33517;49.866;8.320;2024-02-26T05:24:04;98642.56;;;7.68;87.56
12868;BME280;33517;49.866;8.320;2024-02-26T05:26:56;98644.34;;;7.68;88.45
12868;BME280;33517;49.866;8.320;2024-02-26T05:29:47;98639.75;;;7.70;88.97
12868;BME280;33517;49.866;8.320;2024-02-26T05:32:41;98640.75;;;7.69;88.60
12868;BME280;33517;49.866;8.320;2024-02-26T05:35:32;98644.94;;;7.63;89.04
12868;BME280;33517;49.866;8.320;2024-02-26T05:38:24;98648.19;;;7.65;88.93
12868;BME280;33517;49.866;8.320;2024-02-26T05:41:17;98648.94;;;7.59;89.02
12868;BME280;33517;49.866;8.320;2024-02-26T05:44:13;98646.50;;;7.58;89.28
12868;BME280;33517;49.866;8.320;2024-02-26T05:47:06;98659.75;;;7.56;89.96
12868;BME280;33517;49.866;8.320;2024-02-26T05:49:59;98650.69;;;7.52;89.73
12868;BME280;33517;49.866;8.320;2024-02-26T05:52:51;98652.50;;;7.52;90.96
12868;BME280;33517;49.866;8.320;2024-02-26T05:55:43;98656.72;;;7.53;90.01
12868;BME280;33517;49.866;8.320;2024-02-26T05:58:35;98658.56;;;7.52;90.21
12868;BME280;33517;49.866;8.320;2024-02-26T06:01:27;98658.34;;;7.54;91.46
12868;BME280;33517;49.866;8.320;2024-02-26T06:04:19;98657.53;;;7.53;90.39
12868;BME280;33517;49.866;8.320;2024-02-26T06:07:12;98661.34;;;7.51;90.60
12868;BME280;33517;49.866;8.320;2024-02-26T06:10:05;98666.34;;;7.45;91.98
12868;BME280;33517;49.866;8.320;2024-02-26T06:12:57;98674.81;;;7.47;91.36
12868;BME280;33517;49.866;8.320;2024-02-26T06:15:49;98677.97;;;7.43;92.58
12868;BME280;33517;49.866;8.320;2024-02-26T06:18:41;98679.19;;;7.40;91.95
12868;BME280;33517;49.866;8.320;2024-02-26T06:21:33;98691.56;;;7.32;93.73
12868;BME280;33517;49.866;8.320;2024-02-26T06:24:27;98688.50;;;7.28;94.33
12868;BME280;33517;49.866;8.320;2024-02-26T06:27:19;98692.19;;;7.34;93.62
12868;BME280;33517;49.866;8.320;2024-02-26T06:30:12;98700.41;;;7.31;94.27
12868;BME280;33517;49.866;8.320;2024-02-26T06:33:05;98697.97;;;7.29;93.57
12868;BME280;33517;49.866;8.320;2024-02-26T06:35:56;98702.22;;;7.30;94.17
12868;BME280;33517;49.866;8.320;2024-02-26T06:38:48;98700.22;;;7.32;94.13
12868;BME280;33517;49.866;8.320;2024-02-26T06:41:42;98714.47;;;7.30;94.10
12868;BME280;33517;49.866;8.320;2024-02-26T06:44:34;98719.03;;;7.21;94.76
12868;BME280;33517;49.866;8.320;2024-02-26T06:47:25;98720.25;;;7.25;95.06
12868;BME280;33517;49.866;8.320;2024-02-26T06:50:17;98721.25;;;7.24;94.81
12868;BME280;33517;49.866;8.320;2024-02-26T06:53:09;98722.63;;;7.20;96.27
12868;BME280;33517;49.866;8.320;2024-02-26T06:56:01;98727.13;;;7.26;95.83
12868;BME280;33517;49.866;8.320;2024-02-26T06:58:54;98735.50;;;7.22;96.08
12868;BME280;33517;49.866;8.320;2024-02-26T07:01:46;98741.56;;;7.22;95.68
12868;BME280;33517;49.866;8.320;2024-02-26T07:04:38;98740.75;;;7.22;96.29
12868;BME280;33517;49.866;8.320;2024-02-26T07:07:31;98751.78;;;7.17;96.75
12868;BME280;33517;49.866;8.320;2024-02-26T07:10:23;98745.72;;;7.17;97.59
12868;BME280;33517;49.866;8.320;2024-02-26T07:13:14;98752.41;;;7.19;96.90
12868;BME280;33517;49.866;8.320;2024-02-26T07:16:10;98762.69;;;7.21;97.27
12868;BME280;33517;49.866;8.320;2024-02-26T07:19:02;98760.13;;;7.27;97.25
12868;BME280;33517;49.866;8.320;2024-02-26T07:21:54;98767.34;;;7.25;98.13
12868;BME280;33517;49.866;8.320;2024-02-26T07:24:46;98769.97;;;7.25;97.73
12868;BME280;33517;49.866;8.320;2024-02-26T07:27:39;98773.41;;;7.26;98.06
12868;BME280;33517;49.866;8.320;2024-02-26T07:30:31;98767.25;;;7.33;97.96
12868;BME280;33517;49.866;8.320;2024-02-26T07:33:24;98769.31;;;7.38;97.62
12868;BME280;33517;49.866;8.320;2024-02-26T07:36:16;98777.78;;;7.40;98.82
12868;BME280;33517;49.866;8.320;2024-02-26T07:39:08;98770.63;;;7.48;97.99
12868;BME280;33517;49.866;8.320;2024-02-26T07:42:00;98774.56;;;7.59;97.66
12868;BME280;33517;49.866;8.320;2024-02-26T07:44:52;98771.44;;;7.70;98.39
12868;BME280;33517;49.866;8.320;2024-02-26T07:47:44;98777.19;;;7.80;97.23
12868;BME280;33517;49.866;8.320;2024-02-26T07:50:37;98777.25;;;7.87;97.69
12868;BME280;33517;49.866;8.320;2024-02-26T07:53:31;98778.13;;;7.94;96.74
12868;BME280;33517;49.866;8.320;2024-02-26T07:56:23;98786.63;;;7.96;97.26
12868;BME280;33517;49.866;8.320;2024-02-26T07:59:14;98787.84;;;8.00;96.27
12868;BME280;33517;49.866;8.320;2024-02-26T08:02:07;98792.16;;;8.07;97.23
12868;BME280;33517;49.866;8.320;2024-02-26T08:04:59;98793.34;;;8.05;96.42
12868;BME280;33517;49.866;8.320;2024-02-26T08:07:52;98797.13;;;8.02;96.72
12868;BME280;33517;49.866;8.320;2024-02-26T08:10:45;98798.19;;;8.08;96.51
12868;BME280;33517;49.866;8.320;2024-02-26T08:13:37;98791.22;;;8.15;96.80
12868;BME280;33517;49.866;8.320;2024-02-26T08:16:29;98787.84;;;8.21;96.82
12868;BME280;33517;49.866;8.320;2024-02-26T08:19:21;98803.72;;;8.19;95.91
12868;BME280;33517;49.866;8.320;2024-02-26T08:22:13;98802.34;;;8.23;95.86
12868;BME280;33517;49.866;8.320;2024-02-26T08:25:09;98818.25;;;8.22;95.76
12868;BME280;33517;49.866;8.320;2024-02-26T08:28:01;98816.19;;;8.17;95.59
12868;BME280;33517;49.866;8.320;2024-02-26T08:30:53;98816.97;;;8.11;96.95
12868;BME280;33517;49.866;8.320;2024-02-26T08:33:45;98811.16;;;8.16;97.65
12868;BME280;33517;49.866;8.320;2024-02-26T08:36:37;98808.53;;;8.16;96.76
12868;BME280;33517;49.866;8.320;2024-02-26T08:39:29;98814.63;;;8.23;97.48
12868;BME280;33517;49.866;8.320;2024-02-26T08:42:22;98815.41;;;8.17;97.12
12868;BME280;33517;49.866;8.320;2024-02-26T08:45:15;98821.13;;;8.06;97.34
12868;BME280;33517;49.866;8.320;2024-02-26T08:48:07;98825.59;;;8.05;97.95
12868;BME280;33517;49.866;8.320;2024-02-26T08:50:59;98820.88;;;8.22;97.77
12868;BME280;33517;49.866;8.320;2024-02-26T08:53:51;98817.84;;;8.40;96.55
12868;BME280;33517;49.866;8.320;2024-02-26T08:56:44;98819.41;;;8.62;96.97
12868;BME280;33517;49.866;8.320;2024-02-26T08:59:37;98831.41;;;8.77;96.02
12868;BME280;33517;49.866;8.320;2024-02-26T09:02:29;98837.66;;;8.76;96.34
12868;BME280;33517;49.866;8.320;2024-02-26T09:05:21;98841.25;;;8.69;96.55
12868;BME280;33517;49.866;8.320;2024-02-26T09:08:13;98837.41;;;8.71;96.12
12868;BME280;33517;49.866;8.320;2024-02-26T09:11:05;98835.63;;;8.72;96.80
12868;BME280;33517;49.866;8.320;2024-02-26T09:13:57;98825.41;;;8.83;96.38
12868;BME280;33517;49.866;8.320;2024-02-26T09:16:50;98822.50;;;9.06;96.21
12868;BME280;33517;49.866;8.320;2024-02-26T09:19:43;98821.03;;;9.38;94.77
12868;BME280;33517;49.866;8.320;2024-02-26T09:22:35;98818.47;;;9.57;94.31
12868;BME280;33517;49.866;8.320;2024-02-26T09:25:28;98832.06;;;9.74;93.47
12868;BME280;33517;49.866;8.320;2024-02-26T09:28:20;98839.09;;;9.67;93.07
12868;BME280;33517;49.866;8.320;2024-02-26T09:31:12;98838.94;;;9.75;93.08
12868;BME280;33517;49.866;8.320;2024-02-26T09:34:07;98840.75;;;9.74;92.90
12868;BME280;33517;49.866;8.320;2024-02-26T09:37:00;98842.34;;;9.69;92.38
12868;BME280;33517;49.866;8.320;2024-02-26T09:39:52;98846.84;;;9.81;91.99
12868;BME280;33517;49.866;8.320;2024-02-26T09:42:45;98842.41;;;9.88;92.04
12868;BME280;33517;49.866;8.320;2024-02-26T09:45:37;98843.28;;;10.15;91.02
12868;BME280;33517;49.866;8.320;2024-02-26T09:48:30;98857.44;;;10.34;90.31
12868;BME280;33517;49.866;8.320;2024-02-26T09:51:24;98863.13;;;10.31;90.26
12868;BME280;33517;49.866;8.320;2024-02-26T09:54:17;98865.13;;;10.22;89.87
12868;BME280;33517;49.866;8.320;2024-02-26T09:57:09;98857.25;;;10.29;90.26
12868;BME280;33517;49.866;8.320;2024-02-26T10:00:08;98858.47;;;10.26;89.85
12868;BME280;33517;49.866;8.320;2024-02-26T10:03:04;98861.91;;;10.53;89.40
12868;BME280;33517;49.866;8.320;2024-02-26T10:05:56;98858.47;;;10.78;88.28
12868;BME280;33517;49.866;8.320;2024-02-26T10:08:50;98875.47;;;10.37;87.83
12868;BME280;33517;49.866;8.320;2024-02-26T10:11:43;98872.41;;;10.20;88.83
12868;BME280;33517;49.866;8.320;2024-02-26T10:14:35;98873.38;;;10.06;89.42
12868;BME280;33517;49.866;8.320;2024-02-26T10:17:27;98881.47;;;10.04;89.75
12868;BME280;33517;49.866;8.320;2024-02-26T10:20:20;98882.69;;;10.08;89.79
12868;BME280;33517;49.866;8.320;2024-02-26T10:23:14;98868.97;;;10.19;89.99
12868;BME280;33517;49.866;8.320;2024-02-26T10:26:08;98871.44;;;10.41;89.67
12868;BME280;33517;49.866;8.320;2024-02-26T10:29:02;98872.44;;;10.66;88.93
12868;BME280;33517;49.866;8.320;2024-02-26T10:31:53;98880.13;;;10.80;88.28
12868;BME280;33517;49.866;8.320;2024-02-26T10:34:45;98884.19;;;10.83;87.98
12868;BME280;33517;49.866;8.320;2024-02-26T10:37:38;98889.22;;;10.84;87.91
12868;BME280;33517;49.866;8.320;2024-02-26T10:40:31;98893.69;;;10.71;87.70
12868;BME280;33517;49.866;8.320;2024-02-26T10:43:25;98901.38;;;10.66;88.54
12868;BME280;33517;49.866;8.320;2024-02-26T10:46:17;98899.53;;;10.79;87.90
12868;BME280;33517;49.866;8.320;2024-02-26T10:49:13;98896.69;;;10.87;87.84
12868;BME280;33517;49.866;8.320;2024-02-26T10:52:06;98892.06;;;10.83;86.92
12868;BME280;33517;49.866;8.320;2024-02-26T10:55:00;98902.13;;;11.19;87.68
12868;BME280;33517;49.866;8.320;2024-02-26T10:57:52;98891.50;;;11.58;85.63
12868;BME280;33517;49.866;8.320;2024-02-26T11:00:46;98894.28;;;12.14;84.23
12868;BME280;33517;49.866;8.320;2024-02-26T11:03:40;98899.69;;;12.56;83.11
12868;BME280;33517;49.866;8.320;2024-02-26T11:06:32;98895.47;;;12.98;82.32
12868;BME280;33517;49.866;8.320;2024-02-26T11:09:25;98901.25;;;12.64;80.00
12868;BME280;33517;49.866;8.320;2024-02-26T11:12:19;98907.47;;;12.76;81.52
12868;BME280;33517;49.866;8.320;2024-02-26T11:15:13;98910.13;;;13.19;79.59
12868;BME280;33517;49.866;8.320;2024-02-26T11:18:08;98903.63;;;13.21;79.21
12868;BME280;33517;49.866;8.320;2024-02-26T11:21:01;98918.31;;;13.53;79.03
12868;BME280;33517;49.866;8.320;2024-02-26T11:23:53;98908.97;;;14.35;77.22
12868;BME280;33517;49.866;8.320;2024-02-26T11:26:49;98906.66;;;15.14;75.77
12868;BME280;33517;49.866;8.320;2024-02-26T11:29:51;98920.03;;;15.54;73.40
12868;BME280;33517;49.866;8.320;2024-02-26T11:32:44;98923.25;;;15.33;72.95
12868;BME280;33517;49.866;8.320;2024-02-26T11:35:38;98922.41;;;14.86;72.52
12868;BME280;33517;49.866;8.320;2024-02-26T11:38:30;98918.81;;;14.57;73.51
12868;BME280;33517;49.866;8.320;2024-02-26T11:41:24;98915.66;;;15.02;73.08
12868;BME280;33517;49.866;8.320;2024-02-26T11:44:28;98908.00;;;15.63;72.66
12868;BME280;33517;49.866;8.320;2024-02-26T11:47:22;98905.59;;;15.61;71.20
12868;BME280;33517;49.866;8.320;2024-02-26T11:50:33;98913.91;;;15.65;71.24
12868;BME280;33517;49.866;8.320;2024-02-26T11:53:28;98915.88;;;15.98;70.11
12868;BME280;33517;49.866;8.320;2024-02-26T11:56:22;98914.22;;;16.08;69.32
12868;BME280;33517;49.866;8.320;2024-02-26T11:59:38;98922.78;;;15.59;69.29
12868;BME280;33517;49.866;8.320;2024-02-26T12:02:41;98928.53;;;14.98;71.09
12868;BME280;33517;49.866;8.320;2024-02-26T12:05:36;98928.50;;;14.34;71.92
12868;BME280;33517;49.866;8.320;2024-02-26T12:08:34;98928.78;;;13.96;73.17
12868;BME280;33517;49.866;8.320;2024-02-26T12:11:27;98926.50;;;14.00;73.68
12868;BME280;33517;49.866;8.320;2024-02-26T12:14:25;98927.00;;;14.08;73.46
12868;BME280;33517;49.866;8.320;2024-02-26T12:17:19;98927.72;;;14.15;73.38
12868;BME280;33517;49.866;8.320;2024-02-26T12:20:13;98929.97;;;14.59;72.79
12868;BME280;33517;49.866;8.320;2024-02-26T12:23:05;98939.25;;;15.03;71.70
12868;BME280;33517;49.866;8.320;2024-02-26T12:26:00;98940.28;;;15.37;70.41
12868;BME280;33517;49.866;8.320;2024-02-26T12:28:52;98945.81;;;15.01;70.02
12868;BME280;33517;49.866;8.320;2024-02-26T12:31:43;98940.84;;;15.16;70.41
12868;BME280;33517;49.866;8.320;2024-02-26T12:34:35;98936.09;;;16.15;68.91
12868;BME280;33517;49.866;8.320;2024-02-26T12:37:28;98923.06;;;18.01;65.99
12868;BME280;33517;49.866;8.320;2024-02-26T12:40:20;98921.66;;;18.69;61.59
12868;BME280;33517;49.866;8.320;2024-02-26T12:43:14;98932.59;;;19.92;60.27
12868;BME280;33517;49.866;8.320;2024-02-26T12:46:07;98937.09;;;20.94;57.40
12868;BME280;33517;49.866;8.320;2024-02-26T12:48:59;98940.03;;;21.33;56.11
12868;BME280;33517;49.866;8.320;2024-02-26T12:51:51;98945.41;;;20.97;54.93
12868;BME280;33517;49.866;8.320;2024-02-26T12:54:44;98955.22;;;19.75;55.71
12868;BME280;33517;49.866;8.320;2024-02-26T12:57:37;98951.81;;;18.26;57.34
12868;BME280;33517;49.866;8.320;2024-02-26T13:00:31;98957.50;;;17.15;59.55
12868;BME280;33517;49.866;8.320;2024-02-26T13:03:23;98947.16;;;16.80;61.04
12868;BME280;33517;49.866;8.320;2024-02-26T13:06:15;98945.66;;;16.56;61.19
12868;BME280;33517;49.866;8.320;2024-02-26T13:09:08;98964.31;;;16.33;62.45
12868;BME280;33517;49.866;8.320;2024-02-26T13:12:05;98950.91;;;16.84;61.62
12868;BME280;33517;49.866;8.320;2024-02-26T13:15:00;98961.59;;;16.56;61.25
12868;BME280;33517;49.866;8.320;2024-02-26T13:17:53;98969.97;;;15.97;62.13
12868;BME280;33517;49.866;8.320;2024-02-26T13:20:46;98971.59;;;15.98;62.69
12868;BME280;33517;49.866;8.320;2024-02-26T13:23:39;98971.84;;;16.81;62.75
12868;BME280;33517;49.866;8.320;2024-02-26T13:26:31;98969.84;;;16.88;61.79
12868;BME280;33517;49.866;8.320;2024-02-26T13:29:23;98982.59;;;16.57;60.45
12868;BME280;33517;49.866;8.320;2024-02-26T13:32:16;98970.50;;;16.78;61.13
12868;BME280;33517;49.866;8.320;2024-02-26T13:35:11;98985.16;;;17.14;60.18
12868;BME280;33517;49.866;8.320;2024-02-26T13:38:04;98987.00;;;17.13;59.87
12868;BME280;33517;49.866;8.320;2024-02-26T13:40:57;98991.31;;;16.41;60.78
12868;BME280;33517;49.866;8.320;2024-02-26T13:43:50;98995.38;;;15.81;62.20
12868;BME280;33517;49.866;8.320;2024-02-26T13:46:42;99000.88;;;15.10;63.18
12868;BME280;33517;49.866;8.320;2024-02-26T13:49:34;98999.69;;;14.53;64.90
12868;BME280;33517;49.866;8.320;2024-02-26T13:52:27;98998.97;;;13.99;66.45
12868;BME280;33517;49.866;8.320;2024-02-26T13:55:19;98991.09;;;14.10;67.37
12868;BME280;33517;49.866;8.320;2024-02-26T13:58:13;98990.50;;;13.90;68.27
12868;BME280;33517;49.866;8.320;2024-02-26T14:01:05;98999.69;;;14.06;67.92
12868;BME280;33517;49.866;8.320;2024-02-26T14:03:57;98991.50;;;14.07;68.53
12868;BME280;33517;49.866;8.320;2024-02-26T14:06:49;98997.69;;;13.83;68.64
12868;BME280;33517;49.866;8.320;2024-02-26T14:09:42;99001.50;;;13.69;68.90
12868;BME280;33517;49.866;8.320;2024-02-26T14:12:34;99007.47;;;13.40;70.31
12868;BME280;33517;49.866;8.320;2024-02-26T14:15:27;99006.69;;;13.39;70.74
12868;BME280;33517;49.866;8.320;2024-02-26T14:18:19;99012.97;;;13.38;70.67
12868;BME280;33517;49.866;8.320;2024-02-26T14:21:11;99006.84;;;13.44;70.23
12868;BME280;33517;49.866;8.320;2024-02-26T14:24:03;99008.25;;;13.47;70.88
12868;BME280;33517;49.866;8.320;2024-02-26T14:26:57;99003.47;;;13.55;70.86
12868;BME280;33517;49.866;8.320;2024-02-26T14:29:48;99016.28;;;13.76;70.40
12868;BME280;33517;49.866;8.320;2024-02-26T14:32:40;99011.84;;;14.07;70.01
12868;BME280;33517;49.866;8.320;2024-02-26T14:35:32;99013.66;;;13.95;69.10
12868;BME280;33517;49.866;8.320;2024-02-26T14:38:24;99021.94;;;13.80;70.20
12868;BME280;33517;49.866;8.320;2024-02-26T14:41:16;99022.28;;;13.65;70.31
12868;BME280;33517;49.866;8.320;2024-02-26T14:44:10;99011.03;;;13.52;70.75
12868;BME280;33517;49.866;8.320;2024-02-26T14:47:02;99020.91;;;13.38;71.13
12868;BME280;33517;49.866;8.320;2024-02-26T14:49:54;99026.06;;;13.33;72.16
12868;BME280;33517;49.866;8.320;2024-02-26T14:52:46;99030.59;;;13.26;72.37
12868;BME280;33517;49.866;8.320;2024-02-26T14:55:38;99027.50;;;13.05;72.97
12868;BME280;33517;49.866;8.320;2024-02-26T14:58:30;99030.22;;;12.91;72.91
12868;BME280;33517;49.866;8.320;2024-02-26T15:01:24;99034.91;;;12.83;73.56
12868;BME280;33517;49.866;8.320;2024-02-26T15:04:16;99035.97;;;12.75;74.21
12868;BME280;33517;49.866;8.320;2024-02-26T15:07:07;99036.13;;;12.87;74.21
12868;BME280;33517;49.866;8.320;2024-02-26T15:09:59;99037.25;;;12.97;74.00
12868;BME280;33517;49.866;8.320;2024-02-26T15:12:52;99035.19;;;13.06;74.99
12868;BME280;33517;49.866;8.320;2024-02-26T15:15:45;99034.75;;;13.09;74.14
12868;BME280;33517;49.866;8.320;2024-02-26T15:18:39;99042.78;;;13.21;74.25
12868;BME280;33517;49.866;8.320;2024-02-26T15:21:31;99044.09;;;13.36;74.80
12868;BME280;33517;49.866;8.320;2024-02-26T15:24:23;99047.50;;;13.43;73.93